sensor_id;sensor_type;location;lat;lon;timestamp;temperature;humidity
66213;SHT31;53015;50.046;8.238;2022-10-17T00:00:22;13.89;98.77
66213;SHT31;53015;50.046;8.238;2022-10-17T00:02:48;13.81;98.86
66213;SHT31;53015;50.046;8.238;2022-10-17T00:05:15;13.79;99.00
66213;SHT31;53015;50.046;8.238;2022-10-17T00:07:41;13.79;99.07
66213;SHT31;53015;50.046;8.238;2022-10-17T00:10:07;13.86;98.98
66213;SHT31;53015;50.046;8.238;2022-10-17T00:12:33;14.02;98.58
66213;SHT31;53015;50.046;8.238;2022-10-17T00:14:59;13.98;98.49
66213;SHT31;53015;50.046;8.238;2022-10-17T00:17:24;13.86;98.26
66213;SHT31;53015;50.046;8.238;2022-10-17T00:19:50;13.81;98.20
66213;SHT31;53015;50.046;8.238;2022-10-17T00:22:18;13.74;98.33
66213;SHT31;53015;50.046;8.238;2022-10-17T00:24:43;13.65;98.61
66213;SHT31;53015;50.046;8.238;2022-10-17T00:27:09;13.67;98.64
66213;SHT31;53015;50.046;8.238;2022-10-17T00:29:34;13.78;98.40
66213;SHT31;53015;50.046;8.238;2022-10-17T00:32:00;13.78;98.22
66213;SHT31;53015;50.046;8.238;2022-10-17T00:34:27;13.69;98.19
66213;SHT31;53015;50.046;8.238;2022-10-17T00:36:53;13.71;98.12
66213;SHT31;53015;50.046;8.238;2022-10-17T00:39:18;13.60;98.37
66213;SHT31;53015;50.046;8.238;2022-10-17T00:41:45;13.61;98.36
66213;SHT31;53015;50.046;8.238;2022-10-17T00:46:58;13.60;98.41
66213;SHT31;53015;50.046;8.238;2022-10-17T00:49:28;13.50;98.32
66213;SHT31;53015;50.046;8.238;2022-10-17T00:51:57;13.48;98.55
66213;SHT31;53015;50.046;8.238;2022-10-17T00:54:27;13.50;98.44
66213;SHT31;53015;50.046;8.238;2022-10-17T00:56:55;13.47;98.38
66213;SHT31;53015;50.046;8.238;2022-10-17T00:59:26;13.60;98.19
66213;SHT31;53015;50.046;8.238;2022-10-17T01:01:59;13.48;98.11
66213;SHT31;53015;50.046;8.238;2022-10-17T01:04:28;13.39;98.14
66213;SHT31;53015;50.046;8.238;2022-10-17T01:06:54;13.31;98.29
66213;SHT31;53015;50.046;8.238;2022-10-17T01:09:19;13.24;98.57
66213;SHT31;53015;50.046;8.238;2022-10-17T01:11:53;13.22;98.77
66213;SHT31;53015;50.046;8.238;2022-10-17T01:14:51;13.22;99.02
66213;SHT31;53015;50.046;8.238;2022-10-17T01:31:22;13.13;99.30
66213;SHT31;53015;50.046;8.238;2022-10-17T01:39:05;13.23;99.24
66213;SHT31;53015;50.046;8.238;2022-10-17T01:44:14;13.13;99.16
66213;SHT31;53015;50.046;8.238;2022-10-17T01:46:50;13.09;99.35
66213;SHT31;53015;50.046;8.238;2022-10-17T01:49:22;13.04;99.49
66213;SHT31;53015;50.046;8.238;2022-10-17T01:52:19;13.06;99.71
66213;SHT31;53015;50.046;8.238;2022-10-17T01:54:55;13.12;99.94
66213;SHT31;53015;50.046;8.238;2022-10-17T01:57:34;13.06;99.92
66213;SHT31;53015;50.046;8.238;2022-10-17T02:00:05;13.04;99.99
66213;SHT31;53015;50.046;8.238;2022-10-17T02:02:33;13.27;99.89
66213;SHT31;53015;50.046;8.238;2022-10-17T02:05:02;13.31;99.27
66213;SHT31;53015;50.046;8.238;2022-10-17T02:07:27;13.20;99.33
66213;SHT31;53015;50.046;8.238;2022-10-17T02:09:53;13.27;99.13
66213;SHT31;53015;50.046;8.238;2022-10-17T02:12:41;13.31;98.97
66213;SHT31;53015;50.046;8.238;2022-10-17T02:15:23;13.20;98.82
66213;SHT31;53015;50.046;8.238;2022-10-17T02:18:28;13.17;98.98
66213;SHT31;53015;50.046;8.238;2022-10-17T02:20:55;13.17;99.00
66213;SHT31;53015;50.046;8.238;2022-10-17T02:23:34;13.06;99.24
66213;SHT31;53015;50.046;8.238;2022-10-17T02:26:06;13.09;99.17
66213;SHT31;53015;50.046;8.238;2022-10-17T02:28:52;13.09;99.10
66213;SHT31;53015;50.046;8.238;2022-10-17T02:31:26;13.02;99.38
66213;SHT31;53015;50.046;8.238;2022-10-17T02:34:05;13.17;99.58
66213;SHT31;53015;50.046;8.238;2022-10-17T02:36:38;13.10;99.19
66213;SHT31;53015;50.046;8.238;2022-10-17T02:39:05;13.10;99.26
66213;SHT31;53015;50.046;8.238;2022-10-17T02:41:32;13.06;99.56
66213;SHT31;53015;50.046;8.238;2022-10-17T02:43:59;13.07;99.66
66213;SHT31;53015;50.046;8.238;2022-10-17T02:46:27;13.10;99.56
66213;SHT31;53015;50.046;8.238;2022-10-17T02:49:00;13.13;99.43
66213;SHT31;53015;50.046;8.238;2022-10-17T02:54:30;13.16;99.49
66213;SHT31;53015;50.046;8.238;2022-10-17T02:57:04;13.13;99.60
66213;SHT31;53015;50.046;8.238;2022-10-17T02:59:33;13.20;98.97
66213;SHT31;53015;50.046;8.238;2022-10-17T03:02:02;13.26;98.80
66213;SHT31;53015;50.046;8.238;2022-10-17T03:04:28;13.24;98.58
66213;SHT31;53015;50.046;8.238;2022-10-17T03:06:54;13.17;98.96
66213;SHT31;53015;50.046;8.238;2022-10-17T03:09:19;13.17;99.25
66213;SHT31;53015;50.046;8.238;2022-10-17T03:11:44;13.23;99.31
66213;SHT31;53015;50.046;8.238;2022-10-17T03:14:10;13.27;99.06
66213;SHT31;53015;50.046;8.238;2022-10-17T03:16:35;13.24;98.63
66213;SHT31;53015;50.046;8.238;2022-10-17T03:19:01;13.19;98.53
66213;SHT31;53015;50.046;8.238;2022-10-17T03:21:26;13.14;98.31
66213;SHT31;53015;50.046;8.238;2022-10-17T03:23:52;13.16;98.09
66213;SHT31;53015;50.046;8.238;2022-10-17T03:26:17;13.10;98.63
66213;SHT31;53015;50.046;8.238;2022-10-17T03:28:42;13.14;98.73
66213;SHT31;53015;50.046;8.238;2022-10-17T03:31:09;13.19;98.59
66213;SHT31;53015;50.046;8.238;2022-10-17T03:33:35;13.19;98.57
66213;SHT31;53015;50.046;8.238;2022-10-17T03:36:10;13.13;98.57
66213;SHT31;53015;50.046;8.238;2022-10-17T03:38:36;13.16;98.77
66213;SHT31;53015;50.046;8.238;2022-10-17T03:41:02;13.22;98.81
66213;SHT31;53015;50.046;8.238;2022-10-17T03:43:28;13.16;98.83
66213;SHT31;53015;50.046;8.238;2022-10-17T03:45:54;13.19;98.84
66213;SHT31;53015;50.046;8.238;2022-10-17T03:48:20;13.10;98.88
66213;SHT31;53015;50.046;8.238;2022-10-17T03:50:45;13.17;98.56
66213;SHT31;53015;50.046;8.238;2022-10-17T03:53:11;13.13;98.62
66213;SHT31;53015;50.046;8.238;2022-10-17T03:55:37;13.16;98.58
66213;SHT31;53015;50.046;8.238;2022-10-17T03:58:02;13.19;98.50
66213;SHT31;53015;50.046;8.238;2022-10-17T04:00:28;13.23;98.25
66213;SHT31;53015;50.046;8.238;2022-10-17T04:02:53;13.12;98.37
66213;SHT31;53015;50.046;8.238;2022-10-17T04:05:19;13.13;98.73
66213;SHT31;53015;50.046;8.238;2022-10-17T04:07:44;13.09;98.93
66213;SHT31;53015;50.046;8.238;2022-10-17T04:10:10;13.17;99.05
66213;SHT31;53015;50.046;8.238;2022-10-17T04:12:35;13.20;98.98
66213;SHT31;53015;50.046;8.238;2022-10-17T04:15:01;13.19;98.75
66213;SHT31;53015;50.046;8.238;2022-10-17T04:17:29;13.28;98.63
66213;SHT31;53015;50.046;8.238;2022-10-17T04:19:55;13.34;98.27
66213;SHT31;53015;50.046;8.238;2022-10-17T04:22:20;13.31;98.19
66213;SHT31;53015;50.046;8.238;2022-10-17T04:24:45;13.30;98.22
66213;SHT31;53015;50.046;8.238;2022-10-17T04:27:11;13.33;97.89
66213;SHT31;53015;50.046;8.238;2022-10-17T04:29:36;13.28;97.79
66213;SHT31;53015;50.046;8.238;2022-10-17T04:32:02;13.14;98.08
66213;SHT31;53015;50.046;8.238;2022-10-17T04:34:27;13.17;98.24
66213;SHT31;53015;50.046;8.238;2022-10-17T04:36:53;13.12;98.40
66213;SHT31;53015;50.046;8.238;2022-10-17T04:39:18;13.14;98.82
66213;SHT31;53015;50.046;8.238;2022-10-17T04:41:44;13.06;98.78
66213;SHT31;53015;50.046;8.238;2022-10-17T04:44:09;12.97;98.80
66213;SHT31;53015;50.046;8.238;2022-10-17T04:46:35;13.02;99.07
66213;SHT31;53015;50.046;8.238;2022-10-17T04:49:00;12.99;99.15
66213;SHT31;53015;50.046;8.238;2022-10-17T04:51:26;13.02;99.32
66213;SHT31;53015;50.046;8.238;2022-10-17T04:53:51;13.07;99.31
66213;SHT31;53015;50.046;8.238;2022-10-17T04:56:19;13.19;99.25
66213;SHT31;53015;50.046;8.238;2022-10-17T04:58:46;13.24;98.77
66213;SHT31;53015;50.046;8.238;2022-10-17T05:01:14;13.23;98.41
66213;SHT31;53015;50.046;8.238;2022-10-17T05:03:39;13.17;98.29
66213;SHT31;53015;50.046;8.238;2022-10-17T05:06:11;13.22;98.23
66213;SHT31;53015;50.046;8.238;2022-10-17T05:08:37;13.14;98.28
66213;SHT31;53015;50.046;8.238;2022-10-17T05:11:03;13.17;98.08
66213;SHT31;53015;50.046;8.238;2022-10-17T05:13:30;13.06;98.20
66213;SHT31;53015;50.046;8.238;2022-10-17T05:15:59;13.12;98.10
66213;SHT31;53015;50.046;8.238;2022-10-17T05:18:26;13.02;98.09
66213;SHT31;53015;50.046;8.238;2022-10-17T05:20:52;13.00;98.25
66213;SHT31;53015;50.046;8.238;2022-10-17T05:23:17;12.93;98.15
66213;SHT31;53015;50.046;8.238;2022-10-17T05:25:42;13.00;98.14
66213;SHT31;53015;50.046;8.238;2022-10-17T05:28:08;12.93;98.22
66213;SHT31;53015;50.046;8.238;2022-10-17T05:30:34;12.84;98.51
66213;SHT31;53015;50.046;8.238;2022-10-17T05:33:01;12.76;99.10
66213;SHT31;53015;50.046;8.238;2022-10-17T05:35:26;12.88;99.00
66213;SHT31;53015;50.046;8.238;2022-10-17T05:37:52;12.84;99.20
66213;SHT31;53015;50.046;8.238;2022-10-17T05:40:17;12.79;99.25
66213;SHT31;53015;50.046;8.238;2022-10-17T05:42:46;12.78;99.36
66213;SHT31;53015;50.046;8.238;2022-10-17T05:45:13;12.85;99.49
66213;SHT31;53015;50.046;8.238;2022-10-17T05:47:39;12.95;99.08
66213;SHT31;53015;50.046;8.238;2022-10-17T05:50:10;12.89;98.66
66213;SHT31;53015;50.046;8.238;2022-10-17T05:52:35;12.89;98.62
66213;SHT31;53015;50.046;8.238;2022-10-17T05:55:01;12.92;98.68
66213;SHT31;53015;50.046;8.238;2022-10-17T05:57:27;12.86;98.84
66213;SHT31;53015;50.046;8.238;2022-10-17T05:59:52;12.86;98.78
66213;SHT31;53015;50.046;8.238;2022-10-17T06:02:18;12.88;98.89
66213;SHT31;53015;50.046;8.238;2022-10-17T06:04:43;12.96;98.76
66213;SHT31;53015;50.046;8.238;2022-10-17T06:07:13;12.96;98.58
66213;SHT31;53015;50.046;8.238;2022-10-17T06:09:39;13.02;98.62
66213;SHT31;53015;50.046;8.238;2022-10-17T06:12:06;13.02;98.49
66213;SHT31;53015;50.046;8.238;2022-10-17T06:14:31;13.06;98.59
66213;SHT31;53015;50.046;8.238;2022-10-17T06:16:57;13.04;98.68
66213;SHT31;53015;50.046;8.238;2022-10-17T06:19:23;13.09;98.88
66213;SHT31;53015;50.046;8.238;2022-10-17T06:21:49;13.10;98.73
66213;SHT31;53015;50.046;8.238;2022-10-17T06:24:14;13.12;98.73
66213;SHT31;53015;50.046;8.238;2022-10-17T06:26:40;13.16;99.05
66213;SHT31;53015;50.046;8.238;2022-10-17T06:29:05;13.20;99.15
66213;SHT31;53015;50.046;8.238;2022-10-17T06:31:30;13.28;99.01
66213;SHT31;53015;50.046;8.238;2022-10-17T06:33:56;13.34;98.76
66213;SHT31;53015;50.046;8.238;2022-10-17T06:36:21;13.31;98.65
66213;SHT31;53015;50.046;8.238;2022-10-17T06:38:47;13.36;98.56
66213;SHT31;53015;50.046;8.238;2022-10-17T06:41:13;13.40;98.50
66213;SHT31;53015;50.046;8.238;2022-10-17T06:43:41;13.39;98.53
66213;SHT31;53015;50.046;8.238;2022-10-17T06:46:07;13.34;98.72
66213;SHT31;53015;50.046;8.238;2022-10-17T06:48:33;13.44;98.92
66213;SHT31;53015;50.046;8.238;2022-10-17T06:51:02;13.44;98.77
66213;SHT31;53015;50.046;8.238;2022-10-17T06:53:29;13.40;99.11
66213;SHT31;53015;50.046;8.238;2022-10-17T06:55:55;13.44;99.18
66213;SHT31;53015;50.046;8.238;2022-10-17T06:58:26;13.50;99.06
66213;SHT31;53015;50.046;8.238;2022-10-17T07:00:57;13.48;99.11
66213;SHT31;53015;50.046;8.238;2022-10-17T07:03:29;13.57;98.98
66213;SHT31;53015;50.046;8.238;2022-10-17T07:05:55;13.55;99.02
66213;SHT31;53015;50.046;8.238;2022-10-17T07:08:26;13.58;99.12
66213;SHT31;53015;50.046;8.238;2022-10-17T07:10:52;13.67;99.11
66213;SHT31;53015;50.046;8.238;2022-10-17T07:13:18;13.74;98.78
66213;SHT31;53015;50.046;8.238;2022-10-17T07:15:43;13.78;99.04
66213;SHT31;53015;50.046;8.238;2022-10-17T07:18:09;13.78;99.09
66213;SHT31;53015;50.046;8.238;2022-10-17T07:20:36;13.82;99.23
66213;SHT31;53015;50.046;8.238;2022-10-17T07:23:03;13.90;99.25
66213;SHT31;53015;50.046;8.238;2022-10-17T07:25:29;14.04;99.01
66213;SHT31;53015;50.046;8.238;2022-10-17T07:27:56;14.09;98.82
66213;SHT31;53015;50.046;8.238;2022-10-17T07:30:22;14.09;98.88
66213;SHT31;53015;50.046;8.238;2022-10-17T07:32:52;14.15;98.82
66213;SHT31;53015;50.046;8.238;2022-10-17T07:35:17;14.24;98.94
66213;SHT31;53015;50.046;8.238;2022-10-17T07:37:43;14.34;98.91
66213;SHT31;53015;50.046;8.238;2022-10-17T07:40:09;14.41;98.81
66213;SHT31;53015;50.046;8.238;2022-10-17T07:42:35;14.57;98.56
66213;SHT31;53015;50.046;8.238;2022-10-17T07:45:01;14.65;98.51
66213;SHT31;53015;50.046;8.238;2022-10-17T07:47:26;14.75;98.26
66213;SHT31;53015;50.046;8.238;2022-10-17T07:49:55;14.87;97.91
66213;SHT31;53015;50.046;8.238;2022-10-17T07:52:20;14.95;97.54
66213;SHT31;53015;50.046;8.238;2022-10-17T07:54:46;15.08;97.60
66213;SHT31;53015;50.046;8.238;2022-10-17T07:57:11;15.13;97.22
66213;SHT31;53015;50.046;8.238;2022-10-17T07:59:37;15.18;96.74
66213;SHT31;53015;50.046;8.238;2022-10-17T08:02:03;15.26;96.21
66213;SHT31;53015;50.046;8.238;2022-10-17T08:04:31;15.42;96.40
66213;SHT31;53015;50.046;8.238;2022-10-17T08:06:59;15.40;96.31
66213;SHT31;53015;50.046;8.238;2022-10-17T08:09:24;15.42;95.78
66213;SHT31;53015;50.046;8.238;2022-10-17T08:11:49;15.49;95.60
66213;SHT31;53015;50.046;8.238;2022-10-17T08:14:15;15.51;95.47
66213;SHT31;53015;50.046;8.238;2022-10-17T08:16:41;15.57;94.93
66213;SHT31;53015;50.046;8.238;2022-10-17T08:19:06;15.70;94.74
66213;SHT31;53015;50.046;8.238;2022-10-17T08:21:33;15.75;94.88
66213;SHT31;53015;50.046;8.238;2022-10-17T08:23:59;15.78;94.59
66213;SHT31;53015;50.046;8.238;2022-10-17T08:26:27;15.84;94.27
66213;SHT31;53015;50.046;8.238;2022-10-17T08:28:52;15.92;94.23
66213;SHT31;53015;50.046;8.238;2022-10-17T08:31:19;15.95;94.16
66213;SHT31;53015;50.046;8.238;2022-10-17T08:33:46;16.01;93.78
66213;SHT31;53015;50.046;8.238;2022-10-17T08:36:13;16.02;93.58
66213;SHT31;53015;50.046;8.238;2022-10-17T08:38:39;16.09;93.11
66213;SHT31;53015;50.046;8.238;2022-10-17T08:46:39;16.30;92.23
66213;SHT31;53015;50.046;8.238;2022-10-17T08:49:12;16.34;92.01
66213;SHT31;53015;50.046;8.238;2022-10-17T08:51:46;16.45;91.52
66213;SHT31;53015;50.046;8.238;2022-10-17T08:54:17;16.57;91.50
66213;SHT31;53015;50.046;8.238;2022-10-17T08:56:46;16.66;91.01
66213;SHT31;53015;50.046;8.238;2022-10-17T08:59:17;16.81;90.56
66213;SHT31;53015;50.046;8.238;2022-10-17T09:04:49;16.94;90.64
66213;SHT31;53015;50.046;8.238;2022-10-17T09:07:36;17.01;90.40
66213;SHT31;53015;50.046;8.238;2022-10-17T09:13:13;17.21;90.79
66213;SHT31;53015;50.046;8.238;2022-10-17T09:18:45;17.29;90.06
66213;SHT31;53015;50.046;8.238;2022-10-17T09:23:55;17.35;90.79
66213;SHT31;53015;50.046;8.238;2022-10-17T09:26:23;17.46;89.88
66213;SHT31;53015;50.046;8.238;2022-10-17T09:29:04;17.45;90.19
66213;SHT31;53015;50.046;8.238;2022-10-17T09:31:48;17.50;90.15
66213;SHT31;53015;50.046;8.238;2022-10-17T09:34:16;17.56;89.34
66213;SHT31;53015;50.046;8.238;2022-10-17T09:36:47;17.66;89.57
66213;SHT31;53015;50.046;8.238;2022-10-17T09:39:17;17.80;89.43
66213;SHT31;53015;50.046;8.238;2022-10-17T09:41:47;17.90;89.57
66213;SHT31;53015;50.046;8.238;2022-10-17T09:44:23;18.08;89.31
66213;SHT31;53015;50.046;8.238;2022-10-17T09:47:24;18.11;89.48
66213;SHT31;53015;50.046;8.238;2022-10-17T09:49:52;18.22;88.80
66213;SHT31;53015;50.046;8.238;2022-10-17T09:52:28;18.24;88.63
66213;SHT31;53015;50.046;8.238;2022-10-17T09:55:17;18.26;88.51
66213;SHT31;53015;50.046;8.238;2022-10-17T09:57:53;18.29;87.96
66213;SHT31;53015;50.046;8.238;2022-10-17T10:00:23;18.28;88.39
66213;SHT31;53015;50.046;8.238;2022-10-17T10:02:48;18.35;88.54
66213;SHT31;53015;50.046;8.238;2022-10-17T10:05:17;18.42;88.60
66213;SHT31;53015;50.046;8.238;2022-10-17T10:08:01;18.45;88.43
66213;SHT31;53015;50.046;8.238;2022-10-17T10:10:28;18.56;87.85
66213;SHT31;53015;50.046;8.238;2022-10-17T10:13:09;18.53;87.27
66213;SHT31;53015;50.046;8.238;2022-10-17T10:23:33;18.63;87.63
66213;SHT31;53015;50.046;8.238;2022-10-17T10:26:01;18.71;87.03
66213;SHT31;53015;50.046;8.238;2022-10-17T10:28:30;18.71;86.79
66213;SHT31;53015;50.046;8.238;2022-10-17T10:30:59;18.73;86.80
66213;SHT31;53015;50.046;8.238;2022-10-17T10:33:26;18.86;87.11
66213;SHT31;53015;50.046;8.238;2022-10-17T10:36:01;18.84;86.78
66213;SHT31;53015;50.046;8.238;2022-10-17T10:38:28;18.94;86.29
66213;SHT31;53015;50.046;8.238;2022-10-17T10:41:06;18.94;86.03
66213;SHT31;53015;50.046;8.238;2022-10-17T10:43:38;18.91;86.15
66213;SHT31;53015;50.046;8.238;2022-10-17T10:46:18;18.93;85.60
66213;SHT31;53015;50.046;8.238;2022-10-17T10:48:57;19.01;85.75
66213;SHT31;53015;50.046;8.238;2022-10-17T10:51:34;19.05;85.06
66213;SHT31;53015;50.046;8.238;2022-10-17T10:54:31;19.15;84.82
66213;SHT31;53015;50.046;8.238;2022-10-17T10:56:59;19.19;84.46
66213;SHT31;53015;50.046;8.238;2022-10-17T10:59:32;19.41;83.89
66213;SHT31;53015;50.046;8.238;2022-10-17T11:04:48;19.31;84.82
66213;SHT31;53015;50.046;8.238;2022-10-17T11:07:20;19.32;84.68
66213;SHT31;53015;50.046;8.238;2022-10-17T11:10:16;19.32;84.18
66213;SHT31;53015;50.046;8.238;2022-10-17T11:12:55;19.26;84.81
66213;SHT31;53015;50.046;8.238;2022-10-17T11:15:32;19.39;84.21
66213;SHT31;53015;50.046;8.238;2022-10-17T11:18:03;19.70;83.00
66213;SHT31;53015;50.046;8.238;2022-10-17T11:23:47;19.89;82.51
66213;SHT31;53015;50.046;8.238;2022-10-17T11:26:26;19.96;82.10
66213;SHT31;53015;50.046;8.238;2022-10-17T11:28:56;20.10;81.26
66213;SHT31;53015;50.046;8.238;2022-10-17T11:31:25;20.21;81.41
66213;SHT31;53015;50.046;8.238;2022-10-17T11:34:07;20.29;81.21
66213;SHT31;53015;50.046;8.238;2022-10-17T11:36:38;20.42;80.25
66213;SHT31;53015;50.046;8.238;2022-10-17T11:39:13;20.46;81.31
66213;SHT31;53015;50.046;8.238;2022-10-17T11:41:55;20.63;79.20
66213;SHT31;53015;50.046;8.238;2022-10-17T11:44:37;20.72;79.32
66213;SHT31;53015;50.046;8.238;2022-10-17T11:47:12;20.73;79.30
66213;SHT31;53015;50.046;8.238;2022-10-17T11:49:49;20.72;79.26
66213;SHT31;53015;50.046;8.238;2022-10-17T11:52:57;20.72;79.48
66213;SHT31;53015;50.046;8.238;2022-10-17T11:55:22;20.73;79.28
66213;SHT31;53015;50.046;8.238;2022-10-17T12:08:57;21.28;77.33
66213;SHT31;53015;50.046;8.238;2022-10-17T12:11:56;21.49;75.62
66213;SHT31;53015;50.046;8.238;2022-10-17T12:17:35;21.59;76.04
66213;SHT31;53015;50.046;8.238;2022-10-17T12:22:55;21.59;76.25
66213;SHT31;53015;50.046;8.238;2022-10-17T12:25:25;21.69;75.49
66213;SHT31;53015;50.046;8.238;2022-10-17T12:30:32;21.79;74.72
66213;SHT31;53015;50.046;8.238;2022-10-17T12:35:39;21.86;75.53
66213;SHT31;53015;50.046;8.238;2022-10-17T12:38:20;21.94;73.92
66213;SHT31;53015;50.046;8.238;2022-10-17T12:45:56;22.09;73.65
66213;SHT31;53015;50.046;8.238;2022-10-17T12:51:17;21.81;75.76
66213;SHT31;53015;50.046;8.238;2022-10-17T12:56:13;21.71;76.18
66213;SHT31;53015;50.046;8.238;2022-10-17T12:58:44;21.73;75.90
66213;SHT31;53015;50.046;8.238;2022-10-17T13:01:17;21.85;74.97
66213;SHT31;53015;50.046;8.238;2022-10-17T13:03:47;21.88;75.11
66213;SHT31;53015;50.046;8.238;2022-10-17T13:06:19;22.02;73.97
66213;SHT31;53015;50.046;8.238;2022-10-17T13:08:49;22.13;73.55
66213;SHT31;53015;50.046;8.238;2022-10-17T13:11:22;22.07;73.99
66213;SHT31;53015;50.046;8.238;2022-10-17T13:13:50;22.16;73.64
66213;SHT31;53015;50.046;8.238;2022-10-17T13:16:38;22.18;73.33
66213;SHT31;53015;50.046;8.238;2022-10-17T13:19:15;22.22;73.50
66213;SHT31;53015;50.046;8.238;2022-10-17T13:24:22;22.04;74.65
66213;SHT31;53015;50.046;8.238;2022-10-17T13:26:47;22.04;74.37
66213;SHT31;53015;50.046;8.238;2022-10-17T13:29:14;22.11;73.29
66213;SHT31;53015;50.046;8.238;2022-10-17T13:31:42;22.03;73.50
66213;SHT31;53015;50.046;8.238;2022-10-17T13:34:20;21.99;74.13
66213;SHT31;53015;50.046;8.238;2022-10-17T13:36:48;21.99;74.52
66213;SHT31;53015;50.046;8.238;2022-10-17T13:39:17;21.92;75.23
66213;SHT31;53015;50.046;8.238;2022-10-17T13:41:43;22.00;74.06
66213;SHT31;53015;50.046;8.238;2022-10-17T13:44:26;21.97;74.08
66213;SHT31;53015;50.046;8.238;2022-10-17T13:46:52;22.00;75.19
66213;SHT31;53015;50.046;8.238;2022-10-17T13:49:38;22.10;73.68
66213;SHT31;53015;50.046;8.238;2022-10-17T13:52:05;22.04;74.38
66213;SHT31;53015;50.046;8.238;2022-10-17T13:56:59;22.00;74.10
66213;SHT31;53015;50.046;8.238;2022-10-17T13:59:36;22.00;74.48
66213;SHT31;53015;50.046;8.238;2022-10-17T14:02:02;22.00;74.52
66213;SHT31;53015;50.046;8.238;2022-10-17T14:04:27;21.88;74.80
66213;SHT31;53015;50.046;8.238;2022-10-17T14:06:53;21.81;75.41
66213;SHT31;53015;50.046;8.238;2022-10-17T14:09:24;21.76;76.16
66213;SHT31;53015;50.046;8.238;2022-10-17T14:12:02;21.69;76.32
66213;SHT31;53015;50.046;8.238;2022-10-17T14:14:30;21.62;76.44
66213;SHT31;53015;50.046;8.238;2022-10-17T14:16:56;21.65;76.96
66213;SHT31;53015;50.046;8.238;2022-10-17T14:19:33;21.69;78.70
66213;SHT31;53015;50.046;8.238;2022-10-17T14:24:48;22.16;74.65
66213;SHT31;53015;50.046;8.238;2022-10-17T14:27:53;22.48;73.72
66213;SHT31;53015;50.046;8.238;2022-10-17T14:32:51;22.68;72.96
66213;SHT31;53015;50.046;8.238;2022-10-17T14:35:19;22.54;73.54
66213;SHT31;53015;50.046;8.238;2022-10-17T14:37:47;22.55;73.45
66213;SHT31;53015;50.046;8.238;2022-10-17T14:40:16;22.40;73.72
66213;SHT31;53015;50.046;8.238;2022-10-17T14:42:42;22.34;74.20
66213;SHT31;53015;50.046;8.238;2022-10-17T14:45:13;22.20;75.84
66213;SHT31;53015;50.046;8.238;2022-10-17T14:47:39;22.10;75.36
66213;SHT31;53015;50.046;8.238;2022-10-17T14:52:37;22.09;75.41
66213;SHT31;53015;50.046;8.238;2022-10-17T14:55:23;21.97;76.28
66213;SHT31;53015;50.046;8.238;2022-10-17T14:57:49;21.90;76.11
66213;SHT31;53015;50.046;8.238;2022-10-17T15:00:16;21.79;76.57
66213;SHT31;53015;50.046;8.238;2022-10-17T15:02:43;21.78;76.39
66213;SHT31;53015;50.046;8.238;2022-10-17T15:05:08;21.73;76.37
66213;SHT31;53015;50.046;8.238;2022-10-17T15:07:34;21.61;77.42
66213;SHT31;53015;50.046;8.238;2022-10-17T15:09:59;21.47;78.04
66213;SHT31;53015;50.046;8.238;2022-10-17T15:12:25;21.35;78.64
66213;SHT31;53015;50.046;8.238;2022-10-17T15:14:51;21.18;78.84
66213;SHT31;53015;50.046;8.238;2022-10-17T15:17:22;21.10;78.92
66213;SHT31;53015;50.046;8.238;2022-10-17T15:19:48;21.00;79.88
66213;SHT31;53015;50.046;8.238;2022-10-17T15:22:15;20.90;80.35
66213;SHT31;53015;50.046;8.238;2022-10-17T15:24:40;20.82;80.74
66213;SHT31;53015;50.046;8.238;2022-10-17T15:27:14;20.73;81.09
66213;SHT31;53015;50.046;8.238;2022-10-17T15:29:39;20.71;81.26
66213;SHT31;53015;50.046;8.238;2022-10-17T15:32:05;20.62;81.80
66213;SHT31;53015;50.046;8.238;2022-10-17T15:34:30;20.56;82.19
66213;SHT31;53015;50.046;8.238;2022-10-17T15:36:55;20.49;82.26
66213;SHT31;53015;50.046;8.238;2022-10-17T15:39:21;20.44;82.46
66213;SHT31;53015;50.046;8.238;2022-10-17T15:41:47;20.34;82.69
66213;SHT31;53015;50.046;8.238;2022-10-17T15:44:12;20.25;83.38
66213;SHT31;53015;50.046;8.238;2022-10-17T15:46:39;20.21;83.69
66213;SHT31;53015;50.046;8.238;2022-10-17T15:49:08;20.10;84.12
66213;SHT31;53015;50.046;8.238;2022-10-17T15:51:34;20.01;84.41
66213;SHT31;53015;50.046;8.238;2022-10-17T15:54:00;19.97;84.57
66213;SHT31;53015;50.046;8.238;2022-10-17T15:56:31;19.87;85.11
66213;SHT31;53015;50.046;8.238;2022-10-17T15:59:01;19.79;85.42
66213;SHT31;53015;50.046;8.238;2022-10-17T16:01:28;19.72;85.60
66213;SHT31;53015;50.046;8.238;2022-10-17T16:03:55;19.67;85.74
66213;SHT31;53015;50.046;8.238;2022-10-17T16:06:21;19.58;86.35
66213;SHT31;53015;50.046;8.238;2022-10-17T16:08:48;19.51;86.64
66213;SHT31;53015;50.046;8.238;2022-10-17T16:13:50;19.34;87.11
66213;SHT31;53015;50.046;8.238;2022-10-17T16:16:17;19.26;87.42
66213;SHT31;53015;50.046;8.238;2022-10-17T16:18:43;19.19;87.76
66213;SHT31;53015;50.046;8.238;2022-10-17T16:21:12;19.08;88.41
66213;SHT31;53015;50.046;8.238;2022-10-17T16:23:38;19.05;89.24
66213;SHT31;53015;50.046;8.238;2022-10-17T16:26:04;19.16;89.20
66213;SHT31;53015;50.046;8.238;2022-10-17T16:28:29;19.32;88.63
66213;SHT31;53015;50.046;8.238;2022-10-17T16:30:54;19.28;88.67
66213;SHT31;53015;50.046;8.238;2022-10-17T16:33:20;19.21;88.95
66213;SHT31;53015;50.046;8.238;2022-10-17T16:35:45;19.19;89.17
66213;SHT31;53015;50.046;8.238;2022-10-17T16:38:13;19.11;89.37
66213;SHT31;53015;50.046;8.238;2022-10-17T16:40:39;19.05;89.64
66213;SHT31;53015;50.046;8.238;2022-10-17T16:43:05;18.94;90.04
66213;SHT31;53015;50.046;8.238;2022-10-17T16:45:34;18.81;90.52
66213;SHT31;53015;50.046;8.238;2022-10-17T16:48:00;18.69;91.09
66213;SHT31;53015;50.046;8.238;2022-10-17T16:50:25;18.67;91.40
66213;SHT31;53015;50.046;8.238;2022-10-17T16:52:51;18.60;91.58
66213;SHT31;53015;50.046;8.238;2022-10-17T16:55:16;18.52;91.72
66213;SHT31;53015;50.046;8.238;2022-10-17T16:57:43;18.50;92.18
66213;SHT31;53015;50.046;8.238;2022-10-17T17:00:10;18.52;92.25
66213;SHT31;53015;50.046;8.238;2022-10-17T17:02:36;18.43;92.18
66213;SHT31;53015;50.046;8.238;2022-10-17T17:05:02;18.42;92.65
66213;SHT31;53015;50.046;8.238;2022-10-17T17:07:27;18.39;92.84
66213;SHT31;53015;50.046;8.238;2022-10-17T17:09:53;18.36;92.70
66213;SHT31;53015;50.046;8.238;2022-10-17T17:12:21;18.36;92.71
66213;SHT31;53015;50.046;8.238;2022-10-17T17:14:46;18.38;92.61
66213;SHT31;53015;50.046;8.238;2022-10-17T17:17:12;18.28;92.62
66213;SHT31;53015;50.046;8.238;2022-10-17T17:19:37;18.21;92.97
66213;SHT31;53015;50.046;8.238;2022-10-17T17:22:03;18.12;93.42
66213;SHT31;53015;50.046;8.238;2022-10-17T17:24:28;18.09;93.64
66213;SHT31;53015;50.046;8.238;2022-10-17T17:26:55;17.98;93.71
66213;SHT31;53015;50.046;8.238;2022-10-17T17:29:22;17.87;93.88